Time;durP1;ratioP1;P1;durP2;ratioP2;P2;SDS_P1;SDS_P2;PMS_P1;PMS_P2;Temp;Humidity;BMP_temperature;BMP_pressure;BME280_temperature;BME280_humidity;BME280_pressure;Samples;Min_cycle;Max_cycle;Signal;HPM_P1;HPM_P2
2023/05/01 00:02:12;;;;;;;3.15;2.70;;;;;;;12.23;64.98;101538.31;4903671;28;20401;-72
2023/05/01 00:04:37;;;;;;;5.13;3.53;;;;;;;12.19;65.39;101532.25;4922740;28;20240;-72
2023/05/01 00:07:03;;;;;;;4.13;3.20;;;;;;;12.18;65.46;101533.19;4914673;28;20028;-72
2023/05/01 00:09:28;;;;;;;4.65;3.33;;;;;;;12.12;65.46;101537.03;4903129;28;20038;-73
2023/05/01 00:11:54;;;;;;;5.80;3.30;;;;;;;12.01;65.36;101519.78;4902694;28;20144;-73
2023/05/01 00:14:19;;;;;;;4.00;3.38;;;;;;;11.94;65.48;101509.38;4902686;28;20381;-74
2023/05/01 00:16:47;;;;;;;4.80;3.13;;;;;;;11.98;66.23;101518.09;4912639;28;20024;-73
2023/05/01 00:19:17;;;;;;;6.15;3.58;;;;;;;11.96;65.91;101520.84;4897498;29;20028;-73
2023/05/01 00:21:44;;;;;;;4.88;3.22;;;;;;;11.94;66.33;101506.72;4931214;28;20059;-73
2023/05/01 00:24:09;;;;;;;6.45;3.50;;;;;;;12.01;65.70;101515.31;4902627;28;20325;-73
2023/05/01 00:26:35;;;;;;;5.93;3.55;;;;;;;11.98;65.83;101511.91;4901312;28;20051;-73
2023/05/01 00:29:01;;;;;;;4.78;3.58;;;;;;;11.96;66.30;101504.00;4902432;28;20500;-73
2023/05/01 00:31:27;;;;;;;4.65;3.60;;;;;;;11.91;66.60;101496.19;4903993;28;20354;-73
2023/05/01 00:33:52;;;;;;;6.75;3.83;;;;;;;11.91;66.65;101498.88;4908859;28;20345;-73
2023/05/01 00:36:18;;;;;;;4.47;2.90;;;;;;;11.96;67.11;101498.66;4903144;28;20115;-73
2023/05/01 00:38:45;;;;;;;5.22;3.53;;;;;;;11.97;66.68;101495.03;4911755;28;20046;-73
2023/05/01 00:41:10;;;;;;;6.63;3.90;;;;;;;11.93;66.61;101494.31;4926268;28;20040;-73
2023/05/01 00:43:36;;;;;;;4.95;3.40;;;;;;;11.88;66.68;101492.81;4907066;28;20051;-73
2023/05/01 00:46:01;;;;;;;5.05;3.40;;;;;;;11.84;66.55;101494.75;4919597;28;20026;-72
2023/05/01 00:48:26;;;;;;;5.55;4.45;;;;;;;11.85;66.97;101485.78;4904988;28;20515;-73
2023/05/01 00:50:54;;;;;;;5.72;3.58;;;;;;;11.79;66.78;101485.16;4906110;28;20778;-74
2023/05/01 00:53:20;;;;;;;6.35;3.88;;;;;;;11.82;66.85;101479.69;4906984;28;20351;-71
2023/05/01 00:55:47;;;;;;;4.85;3.85;;;;;;;11.76;67.05;101475.53;4913443;28;20539;-72
2023/05/01 00:58:15;;;;;;;5.57;3.70;;;;;;;11.83;67.87;101481.44;4905533;28;20043;-73
2023/05/01 01:00:41;;;;;;;5.40;3.55;;;;;;;11.81;67.40;101472.63;4911304;28;20024;-73
2023/05/01 01:03:06;;;;;;;4.75;3.40;;;;;;;11.76;67.46;101470.19;4906216;28;21520;-73
2023/05/01 01:05:37;;;;;;;8.50;4.18;;;;;;;11.77;67.67;101471.03;4921819;28;20103;-73
2023/05/01 01:08:22;;;;;;;7.32;4.22;;;;;;;11.65;67.34;101459.13;4910247;28;20035;-72
2023/05/01 01:11:07;;;;;;;6.15;3.88;;;;;;;11.65;68.03;101460.00;4926447;28;20465;-74
2023/05/01 01:13:46;;;;;;;5.45;3.85;;;;;;;11.73;68.05;101455.19;4905449;29;20078;-73
2023/05/01 01:16:25;;;;;;;4.75;3.67;;;;;;;11.67;68.78;101446.63;4941380;28;20041;-72
2023/05/01 01:19:24;;;;;;;7.13;4.53;;;;;;;11.70;68.07;101454.44;4903325;28;20444;-73
2023/05/01 01:21:57;;;;;;;4.78;3.80;;;;;;;11.62;68.55;101448.59;4902505;28;20063;-74
2023/05/01 01:24:41;;;;;;;5.40;3.97;;;;;;;11.64;68.67;101446.75;4924348;28;20028;-73
2023/05/01 01:27:25;;;;;;;5.22;3.60;;;;;;;11.64;68.44;101444.94;4904987;29;20059;-73
2023/05/01 01:30:24;;;;;;;5.10;3.40;;;;;;;11.57;69.01;101434.63;4904154;28;20068;-73
2023/05/01 01:33:00;;;;;;;6.65;3.58;;;;;;;11.52;69.32;101441.97;4909927;28;20028;-72
2023/05/01 01:35:28;;;;;;;5.95;3.53;;;;;;;11.52;69.72;101433.97;4907386;28;20048;-73
2023/05/01 01:38:02;;;;;;;6.07;3.80;;;;;;;11.37;69.51;101427.50;4901129;28;20055;-74
2023/05/01 01:40:46;;;;;;;;;;;;;;;11.54;68.21;101421.44;4906817;28;20036;-75
2023/05/01 01:43:17;;;;;;;5.95;4.05;;;;;;;11.40;70.22;101420.25;4919860;28;19962;-73
2023/05/01 01:45:46;;;;;;;7.30;3.83;;;;;;;11.36;70.38;101410.66;4905611;28;20032;-73
2023/05/01 01:48:20;;;;;;;5.53;4.03;;;;;;;11.36;70.77;101410.66;4905024;28;20036;-72
2023/05/01 01:50:47;;;;;;;4.85;3.92;;;;;;;11.32;71.16;101406.41;4905430;28;20039;-71
2023/05/01 01:53:17;;;;;;;5.25;3.95;;;;;;;11.24;70.93;101405.88;4905200;28;20115;-72
2023/05/01 01:55:44;;;;;;;5.13;3.92;;;;;;;11.26;71.16;101401.38;4911773;28;20044;-73
2023/05/01 01:58:12;;;;;;;5.68;3.97;;;;;;;11.22;71.55;101400.63;4913733;28;20035;-73
2023/05/01 02:00:41;;;;;;;6.38;4.43;;;;;;;11.25;71.51;101396.97;4904631;28;20078;-73
2023/05/01 02:03:09;;;;;;;8.02;4.35;;;;;;;11.21;71.59;101390.06;4904531;28;20091;-73
2023/05/01 02:05:36;;;;;;;6.03;3.85;;;;;;;11.23;71.60;101382.84;4908172;28;20032;-73
2023/05/01 02:08:04;;;;;;;6.55;4.00;;;;;;;11.21;71.38;101385.59;4919518;28;20321;-72
2023/05/01 02:10:33;;;;;;;6.93;4.40;;;;;;;11.17;71.63;101391.13;4903465;28;20024;-72
2023/05/01 02:13:01;;;;;;;6.55;4.55;;;;;;;11.12;71.60;101386.00;4902923;28;20081;-72
2023/05/01 02:15:28;;;;;;;5.75;4.00;;;;;;;11.13;71.85;101389.53;4906288;28;20032;-71
2023/05/01 02:17:55;;;;;;;6.15;4.32;;;;;;;11.12;71.53;101386.00;4904966;28;20028;-72
2023/05/01 02:20:21;;;;;;;5.72;4.20;;;;;;;11.10;71.88;101379.88;4906846;28;20426;-72
2023/05/01 02:22:48;;;;;;;5.38;4.30;;;;;;;11.09;72.03;101367.47;4904082;28;20040;-73
2023/05/01 02:25:15;;;;;;;6.90;4.85;;;;;;;11.10;71.53;101377.19;4902992;28;20511;-71
2023/05/01 02:27:51;;;;;;;7.63;4.90;;;;;;;11.10;71.76;101374.53;4903146;28;20042;-71
2023/05/01 02:30:17;;;;;;;7.57;4.95;;;;;;;11.09;71.96;101366.63;4905021;28;20036;-71
2023/05/01 02:32:43;;;;;;;7.10;4.80;;;;;;;11.02;72.63;101367.81;4904672;28;20550;-71
2023/05/01 02:35:09;;;;;;;5.80;4.47;;;;;;;11.03;72.45;101364.22;4918873;28;20052;-72
2023/05/01 02:37:34;;;;;;;6.55;4.82;;;;;;;11.04;72.55;101363.31;4904731;28;20050;-72
2023/05/01 02:40:02;;;;;;;6.47;5.10;;;;;;;10.97;72.63;101365.38;4908601;28;20032;-72
2023/05/01 02:42:28;;;;;;;5.88;4.80;;;;;;;11.00;72.81;101359.03;4914912;28;20135;-72
2023/05/01 02:44:58;;;;;;;7.93;4.80;;;;;;;10.99;73.28;101358.16;4904147;28;20505;-72
2023/05/01 02:47:27;;;;;;;7.00;5.15;;;;;;;11.00;73.37;101351.06;4900372;28;20037;-73
2023/05/01 02:49:53;;;;;;;7.65;4.90;;;;;;;10.97;73.51;101350.25;4900269;28;20028;-72
2023/05/01 02:52:21;;;;;;;6.70;5.03;;;;;;;10.93;73.70;101345.13;4905050;28;20028;-73
2023/05/01 02:54:48;;;;;;;8.30;5.15;;;;;;;10.81;74.40;101333.22;4916454;28;20089;-72
2023/05/01 02:57:16;;;;;;;6.50;5.10;;;;;;;10.85;74.36;101337.47;4902572;28;20044;-72
2023/05/01 02:59:41;;;;;;;5.88;5.10;;;;;;;10.89;74.22;101338.19;4906786;28;20028;-73
2023/05/01 03:02:06;;;;;;;7.05;5.07;;;;;;;10.89;74.58;101328.41;4903000;28;20038;-73
2023/05/01 03:04:32;;;;;;;13.20;5.40;;;;;;;10.86;74.27;101333.84;4907358;28;20032;-72
2023/05/01 03:06:57;;;;;;;7.32;4.88;;;;;;;10.84;74.47;101324.22;4904657;28;20032;-72
2023/05/01 03:09:22;;;;;;;7.75;5.10;;;;;;;10.89;74.57;101322.22;4910720;28;20048;-74
2023/05/01 03:11:48;;;;;;;6.93;5.25;;;;;;;10.84;74.87;101322.44;4910693;28;20024;-74
2023/05/01 03:14:14;;;;;;;7.55;5.43;;;;;;;10.79;75.12;101321.78;4924750;28;20114;-73
2023/05/01 03:16:40;;;;;;;6.20;4.78;;;;;;;10.80;75.16;101317.31;4909047;28;20032;-73
2023/05/01 03:19:06;;;;;;;9.15;5.53;;;;;;;10.70;75.28;101312.41;4903416;28;20159;-74
2023/05/01 03:21:32;;;;;;;8.98;5.68;;;;;;;10.73;75.25;101314.03;4901876;28;20048;-73
2023/05/01 03:23:58;;;;;;;6.68;5.20;;;;;;;10.71;75.63;101308.78;4906891;28;20036;-73
2023/05/01 03:26:23;;;;;;;8.43;5.47;;;;;;;10.68;75.54;101308.06;4917761;28;20558;-73
2023/05/01 03:28:48;;;;;;;7.80;5.25;;;;;;;10.68;75.50;101302.72;4904485;29;20548;-73
2023/05/01 03:31:14;;;;;;;7.43;5.25;;;;;;;10.65;75.82;101301.06;4915980;28;20228;-72
2023/05/01 03:33:40;;;;;;;8.57;6.18;;;;;;;10.64;76.09;101294.00;4916118;28;20032;-72
2023/05/01 03:36:06;;;;;;;7.22;5.38;;;;;;;10.60;76.57;101292.41;4921897;28;20028;-72
2023/05/01 03:38:32;;;;;;;7.50;5.75;;;;;;;10.61;76.59;101290.63;4902381;28;20072;-73
2023/05/01 03:40:58;;;;;;;7.50;5.82;;;;;;;10.61;76.90;101294.13;4905368;28;20119;-76
2023/05/01 03:43:24;;;;;;;7.88;5.43;;;;;;;10.57;76.45;101302.31;4917685;28;20032;-73
2023/05/01 03:45:50;;;;;;;7.13;5.55;;;;;;;10.56;77.69;101289.97;4904821;28;20514;-74
2023/05/01 03:48:19;;;;;;;8.23;5.75;;;;;;;10.56;77.17;101287.28;4912369;28;20046;-73
2023/05/01 03:50:45;;;;;;;7.72;5.90;;;;;;;10.62;76.98;101289.72;4907487;28;20032;-72
2023/05/01 03:53:12;;;;;;;6.40;5.70;;;;;;;10.54;77.94;101284.72;4916349;28;20039;-71
2023/05/01 03:55:38;;;;;;;8.18;5.68;;;;;;;10.57;77.59;101286.34;4903426;28;20287;-72
2023/05/01 03:58:04;;;;;;;8.13;5.85;;;;;;;10.54;78.08;101284.72;4921663;28;20062;-73
2023/05/01 04:00:31;;;;;;;7.47;5.78;;;;;;;10.53;78.44;101284.75;4904166;28;20119;-73
2023/05/01 04:02:57;;;;;;;8.50;6.00;;;;;;;10.46;78.21;101281.53;4905883;28;20064;-73
2023/05/01 04:05:22;;;;;;;9.48;6.03;;;;;;;10.48;78.48;101271.66;4906432;28;20186;-73
2023/05/01 04:07:48;;;;;;;8.95;5.95;;;;;;;10.50;78.40;101272.47;4905846;28;20119;-73
2023/05/01 04:10:13;;;;;;;8.13;5.82;;;;;;;10.47;78.90;101268.13;4924244;28;20038;-72
2023/05/01 04:12:39;;;;;;;7.88;6.18;;;;;;;10.47;78.47;101267.28;4899782;28;20035;-74
2023/05/01 04:15:06;;;;;;;7.18;6.07;;;;;;;10.45;79.32;101270.00;4928556;28;20027;-72
2023/05/01 04:17:31;;;;;;;8.25;5.97;;;;;;;10.42;79.52;101266.63;4908388;28;20035;-72
2023/05/01 04:19:57;;;;;;;10.23;6.47;;;;;;;10.41;79.04;101264.91;4910926;28;20034;-72
2023/05/01 04:22:22;;;;;;;8.27;6.03;;;;;;;10.43;79.27;101274.53;4905831;28;20040;-73
2023/05/01 04:24:48;;;;;;;8.07;6.05;;;;;;;10.39;79.07;101267.59;4902442;28;20051;-72
2023/05/01 04:27:14;;;;;;;8.48;6.40;;;;;;;10.35;79.06;101278.44;4924104;28;20383;-71
2023/05/01 04:29:40;;;;;;;9.13;6.43;;;;;;;10.33;79.47;101275.88;4902070;28;20085;-72
2023/05/01 04:32:06;;;;;;;7.82;6.15;;;;;;;10.32;79.58;101273.25;4907689;28;20150;-71
2023/05/01 04:34:31;;;;;;;8.70;6.50;;;;;;;10.34;79.76;101269.59;4922109;28;20297;-71
2023/05/01 04:36:57;;;;;;;6.70;5.80;;;;;;;10.37;81.31;101269.47;4901586;28;20039;-72
2023/05/01 04:39:22;;;;;;;9.20;6.70;;;;;;;10.33;81.86;101286.50;4903505;28;20028;-72
2023/05/01 04:41:48;;;;;;;8.90;6.00;;;;;;;10.26;82.88;101300.13;4906120;28;20412;-73
2023/05/01 04:44:14;;;;;;;8.68;5.90;;;;;;;10.26;83.81;101292.16;4935124;28;20045;-71
2023/05/01 04:46:39;;;;;;;7.47;5.53;;;;;;;10.19;83.43;101278.19;4907198;28;20153;-71
2023/05/01 04:49:04;;;;;;;8.80;5.90;;;;;;;10.21;83.85;101282.53;4904647;28;20386;-72
2023/05/01 04:51:31;;;;;;;9.57;6.20;;;;;;;10.18;83.72;101295.97;4905406;28;20063;-72
2023/05/01 04:53:56;;;;;;;11.45;6.20;;;;;;;10.20;83.92;101291.44;4918104;28;20024;-72
2023/05/01 04:56:23;;;;;;;11.00;5.72;;;;;;;10.16;83.62;101281.00;4901194;29;20398;-72
2023/05/01 04:58:48;;;;;;;7.97;5.63;;;;;;;10.14;83.43;101291.69;4902382;29;20031;-71
2023/05/01 05:01:14;;;;;;;9.77;6.10;;;;;;;10.18;84.16;101293.28;4902246;29;20358;-72
2023/05/01 05:03:39;;;;;;;8.05;6.07;;;;;;;10.21;84.22;101279.00;4900783;28;20087;-70
2023/05/01 05:06:05;;;;;;;8.05;6.18;;;;;;;10.26;83.42;101292.16;4901425;28;20032;-73
2023/05/01 05:08:31;;;;;;;8.07;6.60;;;;;;;10.22;83.38;101294.03;4902171;28;20408;-71
2023/05/01 05:11:00;;;;;;;11.25;6.63;;;;;;;10.18;83.35;101284.44;4902913;29;20046;-73
2023/05/01 05:13:26;;;;;;;8.88;6.22;;;;;;;10.18;83.53;101287.13;4900982;29;20190;-73
2023/05/01 05:15:52;;;;;;;6.97;6.05;;;;;;;10.23;83.79;101282.47;4915869;28;20035;-73
2023/05/01 05:18:18;;;;;;;9.98;6.20;;;;;;;10.26;83.05;101293.00;4924050;28;20307;-72
2023/05/01 05:20:43;;;;;;;7.57;6.28;;;;;;;10.27;82.89;101286.75;4916070;28;20063;-73
2023/05/01 05:23:09;;;;;;;10.55;6.38;;;;;;;10.28;82.65;101293.78;4903772;28;20039;-72
2023/05/01 05:25:34;;;;;;;9.93;6.53;;;;;;;10.40;82.24;101287.94;4917023;28;20032;-71
2023/05/01 05:28:00;;;;;;;9.68;6.63;;;;;;;10.38;82.42;101289.81;4893466;28;20028;-72
2023/05/01 05:30:26;;;;;;;11.10;6.97;;;;;;;10.42;82.32;101290.56;4906257;28;20043;-72
2023/05/01 05:32:51;;;;;;;7.43;6.25;;;;;;;10.39;82.14;101282.72;4923278;28;20024;-71
2023/05/01 05:35:16;;;;;;;9.55;6.95;;;;;;;10.40;82.42;101285.28;4913546;28;20519;-71
2023/05/01 05:37:43;;;;;;;9.82;7.00;;;;;;;10.46;82.18;101274.41;4906688;28;20094;-73
2023/05/01 05:40:09;;;;;;;9.13;6.97;;;;;;;10.45;82.08;101270.00;4906120;28;20028;-74
2023/05/01 05:42:34;;;;;;;10.73;7.30;;;;;;;10.51;81.94;101270.66;4925667;28;20099;-71
2023/05/01 05:45:00;;;;;;;9.07;6.80;;;;;;;10.58;82.39;101265.03;4905768;29;20034;-72
2023/05/01 05:47:25;;;;;;;10.68;7.40;;;;;;;10.66;81.96;101267.34;4902712;28;20141;-71
2023/05/01 05:49:50;;;;;;;9.50;7.93;;;;;;;10.71;81.57;101268.00;4923269;28;20032;-71
2023/05/01 05:52:16;;;;;;;9.00;7.10;;;;;;;10.83;82.20;101264.78;4912820;28;20561;-71
2023/05/01 05:54:42;;;;;;;8.55;6.93;;;;;;;10.86;81.28;101267.28;4955294;28;20113;-71
2023/05/01 05:57:07;;;;;;;9.57;7.50;;;;;;;10.92;81.19;101272.34;4903839;28;20114;-71
2023/05/01 05:59:33;;;;;;;10.07;7.30;;;;;;;11.05;80.59;101269.13;4924625;28;20027;-72
2023/05/01 06:01:58;;;;;;;8.63;7.43;;;;;;;11.17;80.46;101269.44;4926256;28;20036;-71
2023/05/01 06:04:23;;;;;;;10.48;7.07;;;;;;;11.24;79.74;101264.66;4930463;28;20070;-72
2023/05/01 06:06:49;;;;;;;8.98;6.80;;;;;;;11.23;78.65;101266.47;4904591;28;20032;-72
2023/05/01 06:09:14;;;;;;;9.40;7.47;;;;;;;11.25;78.46;101258.41;4921386;28;20022;-73
2023/05/01 06:11:40;;;;;;;9.15;7.50;;;;;;;11.36;78.70;101264.06;4906958;28;20042;-72
2023/05/01 06:14:06;;;;;;;9.57;7.32;;;;;;;11.48;77.60;101262.63;4918377;28;20425;-73
2023/05/01 06:16:32;;;;;;;11.18;7.72;;;;;;;11.47;77.76;101264.44;4906416;28;20043;-72
2023/05/01 06:18:58;;;;;;;13.90;8.35;;;;;;;11.68;78.19;101262.53;4913896;28;20040;-72
2023/05/01 06:21:23;;;;;;;11.50;7.22;;;;;;;11.80;77.40;101254.88;4907557;28;20035;-72
2023/05/01 06:23:49;;;;;;;11.32;7.55;;;;;;;12.00;77.03;101261.91;4912902;28;20032;-72
2023/05/01 06:26:14;;;;;;;10.07;7.35;;;;;;;12.10;76.17;101260.53;4904203;29;20182;-72
2023/05/01 06:28:40;;;;;;;8.00;7.07;;;;;;;12.21;75.07;101269.72;4910695;28;20087;-72
2023/05/01 06:31:06;;;;;;;10.27;7.70;;;;;;;12.27;74.49;101270.34;4941089;28;20039;-73
2023/05/01 06:33:31;;;;;;;10.55;8.07;;;;;;;12.30;74.19;101267.53;4909359;28;20559;-72
2023/05/01 06:35:58;;;;;;;10.07;7.35;;;;;;;12.39;73.33;101262.56;4923394;28;20489;-72
2023/05/01 06:38:24;;;;;;;10.45;8.15;;;;;;;12.50;73.53;101250.44;4913354;28;20036;-72
2023/05/01 06:40:50;;;;;;;10.32;7.60;;;;;;;12.61;72.77;101266.78;4906408;28;20241;-72
2023/05/01 06:43:15;;;;;;;9.45;7.80;;;;;;;12.78;73.27;101260.53;4908361;28;20481;-73
2023/05/01 06:45:41;;;;;;;10.82;7.85;;;;;;;12.87;72.29;101258.22;4928144;28;20038;-73
2023/05/01 06:48:07;;;;;;;10.15;8.07;;;;;;;12.87;71.92;101250.22;4917168;28;20424;-73
2023/05/01 06:50:32;;;;;;;11.25;7.88;;;;;;;12.85;71.00;101254.78;4904769;28;20059;-74
2023/05/01 06:52:59;;;;;;;11.68;8.15;;;;;;;12.87;70.68;101252.88;4921079;28;20393;-73
2023/05/01 06:55:25;;;;;;;13.35;9.07;;;;;;;12.96;70.82;101254.22;4928955;28;20582;-72
2023/05/01 06:57:51;;;;;;;8.85;7.93;;;;;;;13.05;68.76;101252.88;4912631;28;20095;-74
2023/05/01 07:00:16;;;;;;;9.52;7.50;;;;;;;13.14;69.49;101249.69;4906011;28;20437;-72
2023/05/01 07:02:43;;;;;;;10.07;8.32;;;;;;;13.37;69.15;101257.31;4907026;28;20443;-72
2023/05/01 07:05:09;;;;;;;9.98;7.70;;;;;;;13.65;68.44;101251.25;4908754;28;20126;-72
2023/05/01 07:07:35;;;;;;;9.98;8.00;;;;;;;13.83;68.09;101260.03;4898114;28;20437;-73
2023/05/01 07:10:01;;;;;;;9.60;7.70;;;;;;;13.86;67.21;101267.88;4905561;28;20381;-72
2023/05/01 07:12:28;;;;;;;10.13;7.35;;;;;;;14.00;66.90;101259.06;4905008;28;20032;-72
2023/05/01 07:14:55;;;;;;;10.00;8.15;;;;;;;14.04;66.38;101265.09;4918520;28;20897;-72
2023/05/01 07:17:21;;;;;;;8.70;7.60;;;;;;;13.99;66.88;101256.47;4903910;28;20208;-73
2023/05/01 07:19:46;;;;;;;8.77;7.38;;;;;;;13.94;67.06;101252.25;4902197;28;20396;-72
2023/05/01 07:22:11;;;;;;;10.35;8.13;;;;;;;14.06;66.87;101252.50;4900434;28;20756;-73
2023/05/01 07:24:37;;;;;;;10.07;8.25;;;;;;;14.26;66.78;101257.53;4904239;29;20060;-73
2023/05/01 07:27:02;;;;;;;10.45;8.30;;;;;;;14.38;65.79;101250.56;4905906;28;20381;-72
2023/05/01 07:29:28;;;;;;;10.00;8.45;;;;;;;14.83;66.43;101254.97;4921559;28;20040;-73
2023/05/01 07:31:54;;;;;;;10.38;8.07;;;;;;;15.14;65.85;101251.22;4901744;28;20038;-74
2023/05/01 07:34:19;;;;;;;10.77;8.00;;;;;;;15.43;64.03;101256.56;4903125;28;20036;-75
2023/05/01 07:36:45;;;;;;;10.38;8.48;;;;;;;15.55;63.55;101246.81;4903676;28;20498;-73
2023/05/01 07:39:11;;;;;;;9.60;8.32;;;;;;;15.95;62.88;101253.16;4913876;28;20031;-73
2023/05/01 07:41:36;;;;;;;9.30;7.90;;;;;;;16.30;60.41;101256.16;4902951;28;20092;-72
2023/05/01 07:44:01;;;;;;;10.10;8.60;;;;;;;16.60;58.97;101247.78;4905094;28;20035;-71
2023/05/01 07:46:27;;;;;;;9.80;8.10;;;;;;;16.71;57.69;101252.41;4901014;28;20562;-74
2023/05/01 07:48:52;;;;;;;10.25;7.60;;;;;;;16.82;57.75;101246.31;4902126;28;20047;-71
2023/05/01 07:51:17;;;;;;;12.00;7.85;;;;;;;17.10;57.83;101247.91;4904212;28;20059;-73
2023/05/01 07:53:45;;;;;;;7.70;6.90;;;;;;;17.21;55.99;101249.81;4917583;29;20516;-72
2023/05/01 07:56:10;;;;;;;8.52;7.25;;;;;;;17.00;55.12;101241.44;4897380;28;20307;-71
2023/05/01 07:58:36;;;;;;;8.73;7.15;;;;;;;17.07;55.48;101253.50;4905163;28;20135;-73
2023/05/01 08:01:02;;;;;;;8.90;7.57;;;;;;;17.66;54.54;101253.66;4903911;28;20032;-72
2023/05/01 08:03:28;;;;;;;10.18;7.50;;;;;;;18.78;52.88;101245.16;4907377;28;20054;-71
2023/05/01 08:05:54;;;;;;;9.93;7.03;;;;;;;19.62;50.73;101250.03;4902207;29;20036;-71
2023/05/01 08:08:20;;;;;;;11.23;7.32;;;;;;;20.46;47.21;101230.38;4900933;28;20348;-74
2023/05/01 08:10:46;;;;;;;9.38;6.75;;;;;;;21.19;45.22;101237.47;4901154;28;20107;-72
2023/05/01 08:13:11;;;;;;;7.43;6.47;;;;;;;20.96;43.14;101249.50;4901513;28;20071;-71
2023/05/01 08:15:38;;;;;;;7.38;6.05;;;;;;;20.82;43.99;101251.56;4900435;28;20028;-72
2023/05/01 08:18:04;;;;;;;11.10;6.53;;;;;;;21.18;44.26;101245.72;4903770;28;20516;-72
2023/05/01 08:20:29;;;;;;;8.23;5.78;;;;;;;21.85;42.49;101248.63;4920720;28;20068;-72
2023/05/01 08:22:55;;;;;;;10.10;6.80;;;;;;;21.63;42.09;101249.72;4902451;28;20424;-71
2023/05/01 08:25:20;;;;;;;7.53;5.90;;;;;;;21.16;43.32;101239.59;4900013;28;20036;-73
2023/05/01 08:27:46;;;;;;;8.95;6.20;;;;;;;20.87;43.40;101238.47;4899689;28;20168;-73
2023/05/01 08:30:12;;;;;;;8.15;6.07;;;;;;;21.12;42.63;101239.03;4900181;28;21619;-72
2023/05/01 08:32:37;;;;;;;7.20;6.00;;;;;;;21.11;43.37;101238.16;4902547;29;20024;-71
2023/05/01 08:35:03;;;;;;;7.38;6.65;;;;;;;21.84;41.97;101241.50;4902501;28;20030;-72
2023/05/01 08:37:28;;;;;;;8.48;6.10;;;;;;;22.30;41.07;101245.38;4899437;28;20032;-72
2023/05/01 08:39:54;;;;;;;9.70;6.05;;;;;;;23.13;41.07;101240.19;4900462;28;20024;-73
2023/05/01 08:42:20;;;;;;;12.82;6.78;;;;;;;23.48;38.39;101230.41;4896500;28;20356;-71
2023/05/01 08:44:46;;;;;;;8.52;5.78;;;;;;;23.90;36.96;101233.41;4914603;28;20024;-72
2023/05/01 08:47:16;;;;;;;9.88;6.40;;;;;;;23.69;37.50;101235.59;4902211;28;20032;-72
2023/05/01 08:49:43;;;;;;;8.65;6.10;;;;;;;23.75;37.86;101243.16;4902038;28;20589;-74
2023/05/01 08:52:13;;;;;;;7.10;5.55;;;;;;;23.34;37.20;101243.50;4902310;28;20082;-73
2023/05/01 08:54:42;;;;;;;7.32;5.78;;;;;;;23.01;36.56;101233.22;4901871;28;20059;-71
2023/05/01 08:57:11;;;;;;;8.88;6.05;;;;;;;23.25;37.27;101244.41;4901336;28;20037;-72
2023/05/01 08:59:37;;;;;;;7.28;6.07;;;;;;;23.98;35.13;101238.09;4906159;28;20028;-71
2023/05/01 09:02:04;;;;;;;6.47;5.72;;;;;;;23.43;36.64;101241.72;4907574;28;20032;-71
2023/05/01 09:04:40;;;;;;;8.90;6.22;;;;;;;23.29;37.65;101242.25;4903269;28;20046;-72
2023/05/01 09:07:06;;;;;;;7.70;5.88;;;;;;;23.15;37.10;101242.72;4916923;28;20040;-72
2023/05/01 09:09:33;;;;;;;8.25;5.90;;;;;;;22.92;37.46;101248.56;4913590;28;20488;-71
2023/05/01 09:12:23;;;;;;;8.15;6.45;;;;;;;23.23;38.44;101240.97;4914183;28;20278;-71
2023/05/01 09:14:51;;;;;;;7.05;6.15;;;;;;;22.98;37.49;101245.22;4909912;28;20044;-71
2023/05/01 09:17:16;;;;;;;8.60;6.35;;;;;;;23.60;37.08;101243.63;4908084;28;20032;-73
2023/05/01 09:19:42;;;;;;;8.65;6.43;;;;;;;24.02;35.33;101242.19;4916815;28;20298;-72
2023/05/01 09:22:08;;;;;;;9.25;6.82;;;;;;;24.21;35.36;101252.06;4908291;28;20288;-71
2023/05/01 09:24:33;;;;;;;7.90;6.18;;;;;;;24.73;35.30;101246.69;4900325;29;20444;-72
2023/05/01 09:27:00;;;;;;;8.20;6.03;;;;;;;25.54;33.21;101248.97;4905425;29;20110;-71
2023/05/01 09:29:41;;;;;;;8.32;6.43;;;;;;;26.17;34.42;101247.56;4902855;28;20048;-71
2023/05/01 09:32:19;;;;;;;6.88;5.72;;;;;;;26.32;33.23;101252.19;4935356;28;20276;-73
2023/05/01 09:34:48;;;;;;;8.57;6.15;;;;;;;26.62;31.16;101240.75;4901246;28;20032;-72
2023/05/01 09:37:31;;;;;;;8.82;6.55;;;;;;;27.61;31.96;101243.00;4926632;28;20389;-73
2023/05/01 09:40:26;;;;;;;10.43;6.32;;;;;;;28.64;31.26;101234.38;4917541;28;20036;-73
2023/05/01 09:42:54;;;;;;;8.55;5.78;;;;;;;28.65;28.09;101230.59;4901777;28;20052;-69
2023/05/01 09:45:20;;;;;;;11.00;6.30;;;;;;;29.21;27.88;101236.47;4904223;28;20120;-71
2023/05/01 09:47:46;;;;;;;10.60;6.07;;;;;;;29.38;26.57;101228.03;4901119;28;20123;-71
2023/05/01 09:50:28;;;;;;;7.68;5.93;;;;;;;29.10;29.01;101239.72;4902636;28;20082;-72
2023/05/01 09:52:53;;;;;;;7.95;6.13;;;;;;;28.68;28.27;101232.97;4905649;28;20028;-70
2023/05/01 09:55:19;;;;;;;6.07;5.47;;;;;;;28.36;27.84;101236.00;4899183;28;20067;-72
2023/05/01 09:57:46;;;;;;;8.90;6.05;;;;;;;28.14;28.19;101234.97;4906027;28;20583;-71
2023/05/01 10:00:14;;;;;;;7.63;5.90;;;;;;;27.84;28.81;101243.06;4922298;28;20075;-71
2023/05/01 10:02:41;;;;;;;8.10;5.30;;;;;;;28.13;28.73;101242.31;4904283;28;20032;-72
2023/05/01 10:05:08;;;;;;;14.48;7.30;;;;;;;28.48;28.69;101245.47;4902282;28;20025;-73
2023/05/01 10:07:33;;;;;;;10.25;6.43;;;;;;;28.92;27.94;101239.19;4902921;28;20055;-71
2023/05/01 10:10:15;;;;;;;9.70;6.35;;;;;;;29.71;28.22;101243.00;4897780;28;20489;-73
2023/05/01 10:12:40;;;;;;;7.30;6.47;;;;;;;30.60;26.62;101234.38;4903972;28;20044;-74
2023/05/01 10:15:07;;;;;;;7.85;7.05;;;;;;;30.91;24.81;101238.63;4902187;28;20068;-74
2023/05/01 10:17:33;;;;;;;7.57;6.63;;;;;;;30.17;25.33;101241.81;4907145;28;20116;-73
2023/05/01 10:19:58;;;;;;;8.05;6.93;;;;;;;29.54;25.47;101233.28;4919024;28;20115;-72
2023/05/01 10:22:25;;;;;;;7.50;6.80;;;;;;;29.10;26.71;101239.72;4903173;28;20557;-73
2023/05/01 10:24:51;;;;;;;7.53;6.72;;;;;;;28.96;27.22;101243.25;4901456;28;20198;-71
2023/05/01 10:27:17;;;;;;;7.07;6.35;;;;;;;28.99;26.85;101238.28;4907404;28;20024;-73
2023/05/01 10:29:46;;;;;;;8.23;6.63;;;;;;;29.03;26.16;101245.09;4895029;28;20468;-74
2023/05/01 10:32:12;;;;;;;7.40;6.10;;;;;;;29.25;26.96;101240.53;4901017;28;20036;-74
2023/05/01 10:34:42;;;;;;;7.70;6.70;;;;;;;28.40;27.14;101249.13;4905657;28;20579;-74
2023/05/01 10:37:17;;;;;;;8.10;6.90;;;;;;;28.27;27.96;101247.00;4906183;28;20078;-71
2023/05/01 10:39:42;;;;;;;8.55;7.72;;;;;;;28.48;27.61;101242.75;4905274;29;21143;-73
2023/05/01 10:42:15;;;;;;;8.00;7.20;;;;;;;28.70;27.66;101239.09;4900108;28;20051;-70
2023/05/01 10:44:41;;;;;;;;;;;;;;;29.84;28.70;101250.53;4909337;28;20038;-72
2023/05/01 10:47:42;;;;;;;14.20;7.40;;;;;;;29.65;28.83;101241.06;4923389;28;19920;-73
2023/05/01 10:50:08;;;;;;;7.85;7.18;;;;;;;29.39;26.74;101244.31;4893161;28;20564;-72
2023/05/01 10:53:13;;;;;;;8.10;7.30;;;;;;;29.49;28.12;101247.59;4933137;28;20025;-71
2023/05/01 10:55:43;;;;;;;9.15;7.63;;;;;;;29.07;27.05;101250.19;4900219;28;20078;-73
2023/05/01 10:58:10;;;;;;;9.00;7.05;;;;;;;28.78;27.48;101244.47;4922110;28;20489;-71
2023/05/01 11:00:36;;;;;;;8.13;7.43;;;;;;;28.09;28.02;101257.38;4923166;28;20036;-72
2023/05/01 11:03:20;;;;;;;8.15;7.35;;;;;;;27.13;29.77;101258.59;4925101;28;20035;-71
2023/05/01 11:06:04;;;;;;;9.27;7.43;;;;;;;26.03;30.92;101249.09;4906891;28;20051;-73
2023/05/01 11:08:30;;;;;;;7.78;7.07;;;;;;;25.07;32.09;101249.44;4916902;28;20028;-71
2023/05/01 11:10:56;;;;;;;8.82;7.25;;;;;;;24.58;32.90;101246.44;4901173;28;20551;-73
2023/05/01 11:13:58;;;;;;;9.35;7.10;;;;;;;24.63;33.94;101245.97;4903304;28;20106;-72
2023/05/01 11:16:40;;;;;;;9.10;7.03;;;;;;;24.46;34.09;101253.16;4919554;28;20566;-73
2023/05/01 11:19:08;;;;;;;9.68;7.28;;;;;;;24.15;34.54;101249.97;4905624;28;20032;-72
2023/05/01 11:21:39;;;;;;;8.95;8.05;;;;;;;23.73;35.90;101251.44;4911296;28;20063;-73
2023/05/01 11:24:08;;;;;;;33.30;11.73;;;;;;;23.44;37.05;101251.59;4901644;28;20035;-73
2023/05/01 11:26:38;;;;;;;17.73;9.32;;;;;;;23.22;38.33;101261.00;4903746;28;20028;-73
2023/05/01 11:29:05;;;;;;;16.27;8.98;;;;;;;23.12;37.76;101265.63;4917376;28;20091;-72